sensor_id;sensor_type;location;lat;lon;timestamp;P1;durP1;ratioP1;P2;durP2;ratioP2
13432;SDS011;6789;47.678;9.158;2022-11-20T00:01:34;5.93;;;2.93;;
13432;SDS011;6789;47.678;9.158;2022-11-20T00:06:49;5.73;;;3.20;;
13432;SDS011;6789;47.678;9.158;2022-11-20T00:12:15;5.43;;;3.30;;
13432;SDS011;6789;47.678;9.158;2022-11-20T00:17:40;5.37;;;3.47;;
13432;SDS011;6789;47.678;9.158;2022-11-20T00:22:46;5.83;;;3.10;;
13432;SDS011;6789;47.678;9.158;2022-11-20T00:27:52;4.93;;;3.20;;
13432;SDS011;6789;47.678;9.158;2022-11-20T00:33:04;5.33;;;3.40;;
13432;SDS011;6789;47.678;9.158;2022-11-20T00:38:12;4.87;;;3.10;;
13432;SDS011;6789;47.678;9.158;2022-11-20T00:44:09;4.87;;;3.03;;
13432;SDS011;6789;47.678;9.158;2022-11-20T00:49:29;4.33;;;2.77;;
13432;SDS011;6789;47.678;9.158;2022-11-20T00:54:51;5.20;;;3.07;;
13432;SDS011;6789;47.678;9.158;2022-11-20T01:00:00;4.10;;;2.57;;
13432;SDS011;6789;47.678;9.158;2022-11-20T01:05:33;4.90;;;3.37;;
13432;SDS011;6789;47.678;9.158;2022-11-20T01:11:08;4.13;;;2.83;;
13432;SDS011;6789;47.678;9.158;2022-11-20T01:16:56;5.47;;;3.37;;
13432;SDS011;6789;47.678;9.158;2022-11-20T01:22:12;5.17;;;2.83;;
13432;SDS011;6789;47.678;9.158;2022-11-20T01:33:24;5.57;;;2.87;;
13432;SDS011;6789;47.678;9.158;2022-11-20T01:38:46;5.50;;;3.43;;
13432;SDS011;6789;47.678;9.158;2022-11-20T01:44:05;5.87;;;2.90;;
13432;SDS011;6789;47.678;9.158;2022-11-20T01:49:24;4.13;;;2.97;;
13432;SDS011;6789;47.678;9.158;2022-11-20T01:55:22;5.30;;;3.13;;
13432;SDS011;6789;47.678;9.158;2022-11-20T02:00:37;4.43;;;2.83;;
13432;SDS011;6789;47.678;9.158;2022-11-20T02:11:22;3.27;;;2.67;;
13432;SDS011;6789;47.678;9.158;2022-11-20T02:16:34;4.33;;;2.20;;
13432;SDS011;6789;47.678;9.158;2022-11-20T02:33:57;2.30;;;2.10;;
13432;SDS011;6789;47.678;9.158;2022-11-20T02:39:30;2.20;;;2.00;;
13432;SDS011;6789;47.678;9.158;2022-11-20T02:44:46;4.27;;;2.27;;
13432;SDS011;6789;47.678;9.158;2022-11-20T02:49:52;4.47;;;1.90;;
13432;SDS011;6789;47.678;9.158;2022-11-20T02:55:02;2.93;;;2.10;;
13432;SDS011;6789;47.678;9.158;2022-11-20T03:00:10;3.10;;;2.10;;
13432;SDS011;6789;47.678;9.158;2022-11-20T03:05:25;2.87;;;2.00;;
13432;SDS011;6789;47.678;9.158;2022-11-20T03:10:54;2.63;;;2.07;;
13432;SDS011;6789;47.678;9.158;2022-11-20T03:15:46;2.77;;;2.53;;
13432;SDS011;6789;47.678;9.158;2022-11-20T03:20:56;2.50;;;2.30;;
13432;SDS011;6789;47.678;9.158;2022-11-20T03:25:50;2.53;;;2.20;;
13432;SDS011;6789;47.678;9.158;2022-11-20T03:30:57;4.97;;;3.17;;
13432;SDS011;6789;47.678;9.158;2022-11-20T03:35:49;6.37;;;2.20;;
13432;SDS011;6789;47.678;9.158;2022-11-20T03:40:40;4.93;;;2.40;;
13432;SDS011;6789;47.678;9.158;2022-11-20T03:45:32;3.13;;;2.37;;
13432;SDS011;6789;47.678;9.158;2022-11-20T03:50:24;3.33;;;2.20;;
13432;SDS011;6789;47.678;9.158;2022-11-20T03:55:16;3.10;;;2.40;;
13432;SDS011;6789;47.678;9.158;2022-11-20T04:00:08;4.50;;;2.87;;
13432;SDS011;6789;47.678;9.158;2022-11-20T04:05:00;3.57;;;2.40;;
13432;SDS011;6789;47.678;9.158;2022-11-20T04:09:52;3.07;;;2.43;;
13432;SDS011;6789;47.678;9.158;2022-11-20T04:14:44;2.50;;;2.30;;
13432;SDS011;6789;47.678;9.158;2022-11-20T04:19:35;2.97;;;2.30;;
13432;SDS011;6789;47.678;9.158;2022-11-20T04:24:27;4.87;;;2.60;;
13432;SDS011;6789;47.678;9.158;2022-11-20T04:29:19;2.67;;;2.33;;
13432;SDS011;6789;47.678;9.158;2022-11-20T04:34:11;3.13;;;2.37;;
13432;SDS011;6789;47.678;9.158;2022-11-20T04:39:04;3.00;;;2.37;;
13432;SDS011;6789;47.678;9.158;2022-11-20T04:43:58;3.60;;;2.30;;
13432;SDS011;6789;47.678;9.158;2022-11-20T04:48:54;3.60;;;2.30;;
13432;SDS011;6789;47.678;9.158;2022-11-20T04:53:47;4.10;;;2.37;;
13432;SDS011;6789;47.678;9.158;2022-11-20T04:58:39;3.83;;;2.43;;
13432;SDS011;6789;47.678;9.158;2022-11-20T05:03:31;4.40;;;1.97;;
13432;SDS011;6789;47.678;9.158;2022-11-20T05:08:38;3.83;;;2.07;;
13432;SDS011;6789;47.678;9.158;2022-11-20T05:13:45;1.97;;;1.40;;
13432;SDS011;6789;47.678;9.158;2022-11-20T05:18:53;3.23;;;1.83;;
13432;SDS011;6789;47.678;9.158;2022-11-20T05:24:01;2.33;;;1.67;;
13432;SDS011;6789;47.678;9.158;2022-11-20T05:29:09;2.27;;;1.60;;
13432;SDS011;6789;47.678;9.158;2022-11-20T05:34:18;2.37;;;1.63;;
13432;SDS011;6789;47.678;9.158;2022-11-20T05:39:24;3.03;;;1.33;;
13432;SDS011;6789;47.678;9.158;2022-11-20T05:44:30;3.87;;;1.73;;
13432;SDS011;6789;47.678;9.158;2022-11-20T05:49:36;1.97;;;1.50;;
13432;SDS011;6789;47.678;9.158;2022-11-20T05:54:42;2.97;;;1.60;;
13432;SDS011;6789;47.678;9.158;2022-11-20T05:59:47;2.20;;;1.47;;
13432;SDS011;6789;47.678;9.158;2022-11-20T06:04:53;3.67;;;1.77;;
13432;SDS011;6789;47.678;9.158;2022-11-20T06:09:59;2.97;;;1.80;;
13432;SDS011;6789;47.678;9.158;2022-11-20T06:15:05;3.00;;;2.07;;
13432;SDS011;6789;47.678;9.158;2022-11-20T06:20:12;2.10;;;1.90;;
13432;SDS011;6789;47.678;9.158;2022-11-20T06:25:18;3.73;;;1.60;;
13432;SDS011;6789;47.678;9.158;2022-11-20T06:30:24;2.10;;;1.90;;
13432;SDS011;6789;47.678;9.158;2022-11-20T06:35:30;2.37;;;1.87;;
13432;SDS011;6789;47.678;9.158;2022-11-20T06:40:36;3.67;;;1.70;;
13432;SDS011;6789;47.678;9.158;2022-11-20T06:45:46;3.80;;;2.00;;
13432;SDS011;6789;47.678;9.158;2022-11-20T06:50:57;2.17;;;1.83;;
13432;SDS011;6789;47.678;9.158;2022-11-20T06:56:03;5.77;;;2.20;;
13432;SDS011;6789;47.678;9.158;2022-11-20T07:01:11;1.77;;;1.67;;
13432;SDS011;6789;47.678;9.158;2022-11-20T07:06:19;2.33;;;1.60;;
13432;SDS011;6789;47.678;9.158;2022-11-20T07:11:25;1.27;;;1.17;;
13432;SDS011;6789;47.678;9.158;2022-11-20T07:16:19;2.87;;;1.70;;
13432;SDS011;6789;47.678;9.158;2022-11-20T07:21:26;1.60;;;1.50;;
13432;SDS011;6789;47.678;9.158;2022-11-20T07:26:32;2.63;;;1.47;;
13432;SDS011;6789;47.678;9.158;2022-11-20T07:31:38;1.90;;;1.60;;
13432;SDS011;6789;47.678;9.158;2022-11-20T07:36:44;3.07;;;1.80;;
13432;SDS011;6789;47.678;9.158;2022-11-20T07:41:50;2.83;;;1.70;;
13432;SDS011;6789;47.678;9.158;2022-11-20T07:46:56;2.87;;;1.53;;
13432;SDS011;6789;47.678;9.158;2022-11-20T07:52:02;2.23;;;1.60;;
13432;SDS011;6789;47.678;9.158;2022-11-20T07:57:28;1.63;;;1.53;;
13432;SDS011;6789;47.678;9.158;2022-11-20T08:02:48;2.60;;;1.37;;
13432;SDS011;6789;47.678;9.158;2022-11-20T08:07:54;2.43;;;1.50;;
13432;SDS011;6789;47.678;9.158;2022-11-20T08:13:00;1.20;;;1.10;;
13432;SDS011;6789;47.678;9.158;2022-11-20T08:18:24;1.67;;;1.20;;
13432;SDS011;6789;47.678;9.158;2022-11-20T08:23:30;1.67;;;1.30;;
13432;SDS011;6789;47.678;9.158;2022-11-20T08:28:36;1.87;;;1.50;;
13432;SDS011;6789;47.678;9.158;2022-11-20T08:33:42;3.57;;;1.57;;
13432;SDS011;6789;47.678;9.158;2022-11-20T08:38:48;2.70;;;1.37;;
13432;SDS011;6789;47.678;9.158;2022-11-20T08:44:00;2.80;;;1.57;;
13432;SDS011;6789;47.678;9.158;2022-11-20T08:49:10;2.23;;;1.53;;
13432;SDS011;6789;47.678;9.158;2022-11-20T08:54:19;1.80;;;1.50;;
13432;SDS011;6789;47.678;9.158;2022-11-20T08:59:56;2.30;;;1.37;;
13432;SDS011;6789;47.678;9.158;2022-11-20T09:05:01;3.60;;;1.40;;
13432;SDS011;6789;47.678;9.158;2022-11-20T09:10:08;3.03;;;1.57;;
13432;SDS011;6789;47.678;9.158;2022-11-20T09:15:15;2.17;;;1.27;;
13432;SDS011;6789;47.678;9.158;2022-11-20T09:20:21;1.30;;;1.20;;
13432;SDS011;6789;47.678;9.158;2022-11-20T09:25:27;1.77;;;1.20;;
13432;SDS011;6789;47.678;9.158;2022-11-20T09:30:33;1.83;;;1.20;;
13432;SDS011;6789;47.678;9.158;2022-11-20T09:35:39;1.20;;;1.10;;
13432;SDS011;6789;47.678;9.158;2022-11-20T09:41:19;0.93;;;0.90;;
13432;SDS011;6789;47.678;9.158;2022-11-20T09:46:37;2.37;;;1.20;;
13432;SDS011;6789;47.678;9.158;2022-11-20T09:51:59;2.03;;;1.10;;
13432;SDS011;6789;47.678;9.158;2022-11-20T09:57:35;2.40;;;1.03;;
13432;SDS011;6789;47.678;9.158;2022-11-20T10:02:48;0.90;;;0.90;;
13432;SDS011;6789;47.678;9.158;2022-11-20T10:35:25;2.70;;;0.90;;
13432;SDS011;6789;47.678;9.158;2022-11-20T10:40:48;2.20;;;1.07;;
13432;SDS011;6789;47.678;9.158;2022-11-20T10:46:20;1.90;;;1.00;;
13432;SDS011;6789;47.678;9.158;2022-11-20T10:56:48;1.43;;;1.07;;
13432;SDS011;6789;47.678;9.158;2022-11-20T11:01:57;2.73;;;0.90;;
13432;SDS011;6789;47.678;9.158;2022-11-20T11:07:08;1.30;;;1.00;;
13432;SDS011;6789;47.678;9.158;2022-11-20T11:12:24;2.27;;;1.20;;
13432;SDS011;6789;47.678;9.158;2022-11-20T11:17:33;1.13;;;1.03;;
13432;SDS011;6789;47.678;9.158;2022-11-20T11:22:44;1.87;;;0.80;;
13432;SDS011;6789;47.678;9.158;2022-11-20T11:27:54;1.77;;;0.97;;
13432;SDS011;6789;47.678;9.158;2022-11-20T11:33:05;2.23;;;1.20;;
13432;SDS011;6789;47.678;9.158;2022-11-20T11:38:16;1.50;;;0.93;;
13432;SDS011;6789;47.678;9.158;2022-11-20T11:43:33;5.27;;;2.13;;
13432;SDS011;6789;47.678;9.158;2022-11-20T11:54:05;1.50;;;0.90;;
13432;SDS011;6789;47.678;9.158;2022-11-20T12:05:24;1.37;;;0.80;;
13432;SDS011;6789;47.678;9.158;2022-11-20T12:10:44;1.73;;;0.90;;
13432;SDS011;6789;47.678;9.158;2022-11-20T12:15:55;1.07;;;0.90;;
13432;SDS011;6789;47.678;9.158;2022-11-20T12:42:55;1.17;;;0.93;;
13432;SDS011;6789;47.678;9.158;2022-11-20T13:16:22;1.83;;;0.87;;
13432;SDS011;6789;47.678;9.158;2022-11-20T13:21:56;1.77;;;0.87;;
13432;SDS011;6789;47.678;9.158;2022-11-20T13:27:00;3.17;;;0.87;;
13432;SDS011;6789;47.678;9.158;2022-11-20T13:32:15;1.60;;;0.67;;
13432;SDS011;6789;47.678;9.158;2022-11-20T13:37:29;4.70;;;0.90;;
13432;SDS011;6789;47.678;9.158;2022-11-20T13:42:51;1.77;;;0.87;;
13432;SDS011;6789;47.678;9.158;2022-11-20T13:48:19;0.97;;;0.70;;
13432;SDS011;6789;47.678;9.158;2022-11-20T13:58:59;0.83;;;0.80;;
13432;SDS011;6789;47.678;9.158;2022-11-20T14:04:26;1.20;;;0.80;;
13432;SDS011;6789;47.678;9.158;2022-11-20T14:09:31;1.27;;;0.70;;
13432;SDS011;6789;47.678;9.158;2022-11-20T14:14:27;1.20;;;0.77;;
13432;SDS011;6789;47.678;9.158;2022-11-20T14:19:29;0.90;;;0.70;;
13432;SDS011;6789;47.678;9.158;2022-11-20T14:24:26;1.53;;;0.50;;
13432;SDS011;6789;47.678;9.158;2022-11-20T14:29:30;1.10;;;0.60;;
13432;SDS011;6789;47.678;9.158;2022-11-20T14:34:41;0.80;;;0.60;;
13432;SDS011;6789;47.678;9.158;2022-11-20T14:39:53;0.70;;;0.70;;
13432;SDS011;6789;47.678;9.158;2022-11-20T14:44:47;0.80;;;0.80;;
13432;SDS011;6789;47.678;9.158;2022-11-20T14:49:56;1.20;;;0.70;;
13432;SDS011;6789;47.678;9.158;2022-11-20T14:55:07;0.73;;;0.67;;
13432;SDS011;6789;47.678;9.158;2022-11-20T15:05:06;1.30;;;0.60;;
13432;SDS011;6789;47.678;9.158;2022-11-20T15:10:00;1.10;;;0.70;;
13432;SDS011;6789;47.678;9.158;2022-11-20T15:15:02;1.03;;;0.70;;
13432;SDS011;6789;47.678;9.158;2022-11-20T15:20:00;1.63;;;0.70;;
13432;SDS011;6789;47.678;9.158;2022-11-20T15:25:08;1.17;;;0.60;;
13432;SDS011;6789;47.678;9.158;2022-11-20T15:30:23;2.43;;;0.70;;
13432;SDS011;6789;47.678;9.158;2022-11-20T15:35:16;1.80;;;1.03;;
13432;SDS011;6789;47.678;9.158;2022-11-20T15:40:13;2.10;;;1.73;;
13432;SDS011;6789;47.678;9.158;2022-11-20T15:45:07;2.93;;;1.80;;
13432;SDS011;6789;47.678;9.158;2022-11-20T15:50:13;2.70;;;1.20;;
13432;SDS011;6789;47.678;9.158;2022-11-20T15:55:16;2.67;;;1.30;;
13432;SDS011;6789;47.678;9.158;2022-11-20T16:00:10;2.10;;;1.10;;
13432;SDS011;6789;47.678;9.158;2022-11-20T16:05:13;5.73;;;1.47;;
13432;SDS011;6789;47.678;9.158;2022-11-20T16:10:09;2.30;;;1.10;;
13432;SDS011;6789;47.678;9.158;2022-11-20T16:15:03;2.13;;;1.23;;
13432;SDS011;6789;47.678;9.158;2022-11-20T16:20:18;1.97;;;1.27;;
13432;SDS011;6789;47.678;9.158;2022-11-20T16:25:11;2.43;;;1.60;;
13432;SDS011;6789;47.678;9.158;2022-11-20T16:30:16;3.23;;;1.30;;
13432;SDS011;6789;47.678;9.158;2022-11-20T16:35:16;4.30;;;2.20;;
13432;SDS011;6789;47.678;9.158;2022-11-20T16:40:09;3.70;;;1.90;;
13432;SDS011;6789;47.678;9.158;2022-11-20T16:45:16;2.97;;;1.97;;
13432;SDS011;6789;47.678;9.158;2022-11-20T16:50:23;5.17;;;2.00;;
13432;SDS011;6789;47.678;9.158;2022-11-20T16:55:28;3.83;;;2.00;;
13432;SDS011;6789;47.678;9.158;2022-11-20T17:00:20;2.80;;;1.70;;
13432;SDS011;6789;47.678;9.158;2022-11-20T17:05:12;4.23;;;2.47;;
13432;SDS011;6789;47.678;9.158;2022-11-20T17:10:06;3.47;;;1.90;;
13432;SDS011;6789;47.678;9.158;2022-11-20T17:15:12;3.13;;;2.30;;
13432;SDS011;6789;47.678;9.158;2022-11-20T17:20:08;3.73;;;2.20;;
13432;SDS011;6789;47.678;9.158;2022-11-20T17:25:04;4.00;;;2.60;;
13432;SDS011;6789;47.678;9.158;2022-11-20T17:29:58;4.17;;;2.63;;
13432;SDS011;6789;47.678;9.158;2022-11-20T17:34:54;3.70;;;2.50;;
13432;SDS011;6789;47.678;9.158;2022-11-20T17:39:47;5.10;;;2.30;;
13432;SDS011;6789;47.678;9.158;2022-11-20T17:44:39;2.93;;;1.87;;
13432;SDS011;6789;47.678;9.158;2022-11-20T17:49:33;3.87;;;2.20;;
13432;SDS011;6789;47.678;9.158;2022-11-20T17:54:25;4.07;;;2.30;;
13432;SDS011;6789;47.678;9.158;2022-11-20T17:59:25;6.40;;;3.00;;
13432;SDS011;6789;47.678;9.158;2022-11-20T18:04:18;3.23;;;2.50;;
13432;SDS011;6789;47.678;9.158;2022-11-20T18:09:12;3.40;;;2.50;;
13432;SDS011;6789;47.678;9.158;2022-11-20T18:14:05;5.07;;;2.90;;
13432;SDS011;6789;47.678;9.158;2022-11-20T18:19:21;6.07;;;3.40;;
13432;SDS011;6789;47.678;9.158;2022-11-20T18:24:22;5.90;;;3.33;;
13432;SDS011;6789;47.678;9.158;2022-11-20T18:29:15;5.13;;;3.03;;
13432;SDS011;6789;47.678;9.158;2022-11-20T18:34:09;5.43;;;3.80;;
13432;SDS011;6789;47.678;9.158;2022-11-20T18:39:05;3.47;;;2.40;;
13432;SDS011;6789;47.678;9.158;2022-11-20T18:43:59;5.60;;;3.07;;
13432;SDS011;6789;47.678;9.158;2022-11-20T18:49:21;6.80;;;3.00;;
13432;SDS011;6789;47.678;9.158;2022-11-20T18:54:27;4.97;;;2.60;;
13432;SDS011;6789;47.678;9.158;2022-11-20T18:59:34;4.53;;;2.90;;
13432;SDS011;6789;47.678;9.158;2022-11-20T19:04:40;4.70;;;2.90;;
13432;SDS011;6789;47.678;9.158;2022-11-20T19:09:58;5.70;;;3.40;;
13432;SDS011;6789;47.678;9.158;2022-11-20T19:15:04;4.90;;;3.27;;
13432;SDS011;6789;47.678;9.158;2022-11-20T19:20:15;4.03;;;2.83;;
13432;SDS011;6789;47.678;9.158;2022-11-20T19:25:23;2.83;;;2.10;;
13432;SDS011;6789;47.678;9.158;2022-11-20T19:30:29;3.80;;;2.43;;
13432;SDS011;6789;47.678;9.158;2022-11-20T19:35:36;2.70;;;1.63;;
13432;SDS011;6789;47.678;9.158;2022-11-20T19:40:42;1.50;;;1.30;;
13432;SDS011;6789;47.678;9.158;2022-11-20T19:45:48;1.83;;;1.20;;
13432;SDS011;6789;47.678;9.158;2022-11-20T19:50:54;2.07;;;1.30;;
13432;SDS011;6789;47.678;9.158;2022-11-20T19:56:00;2.60;;;1.10;;
13432;SDS011;6789;47.678;9.158;2022-11-20T20:01:12;1.23;;;0.93;;
13432;SDS011;6789;47.678;9.158;2022-11-20T20:06:24;1.20;;;1.10;;
13432;SDS011;6789;47.678;9.158;2022-11-20T20:11:32;1.30;;;1.20;;
13432;SDS011;6789;47.678;9.158;2022-11-20T20:16:43;2.43;;;1.13;;
13432;SDS011;6789;47.678;9.158;2022-11-20T20:21:49;1.77;;;1.20;;
13432;SDS011;6789;47.678;9.158;2022-11-20T20:26:55;2.60;;;1.23;;
13432;SDS011;6789;47.678;9.158;2022-11-20T20:32:02;1.23;;;1.13;;
13432;SDS011;6789;47.678;9.158;2022-11-20T20:37:08;1.30;;;1.20;;
13432;SDS011;6789;47.678;9.158;2022-11-20T20:42:18;1.77;;;1.33;;
13432;SDS011;6789;47.678;9.158;2022-11-20T20:47:28;1.10;;;1.00;;
13432;SDS011;6789;47.678;9.158;2022-11-20T20:52:39;1.50;;;1.00;;
13432;SDS011;6789;47.678;9.158;2022-11-20T20:57:45;0.70;;;0.70;;
13432;SDS011;6789;47.678;9.158;2022-11-20T21:02:51;1.20;;;0.67;;
13432;SDS011;6789;47.678;9.158;2022-11-20T21:07:59;1.70;;;0.70;;
13432;SDS011;6789;47.678;9.158;2022-11-20T21:13:24;0.40;;;0.40;;
13432;SDS011;6789;47.678;9.158;2022-11-20T21:18:30;2.27;;;0.67;;
13432;SDS011;6789;47.678;9.158;2022-11-20T21:23:37;2.10;;;0.70;;
13432;SDS011;6789;47.678;9.158;2022-11-20T21:28:45;0.77;;;0.77;;
13432;SDS011;6789;47.678;9.158;2022-11-20T21:33:52;1.67;;;0.80;;
13432;SDS011;6789;47.678;9.158;2022-11-20T21:39:01;1.00;;;0.80;;
13432;SDS011;6789;47.678;9.158;2022-11-20T21:44:11;1.83;;;1.00;;
13432;SDS011;6789;47.678;9.158;2022-11-20T21:49:18;0.97;;;0.90;;
13432;SDS011;6789;47.678;9.158;2022-11-20T21:54:24;1.80;;;1.03;;
13432;SDS011;6789;47.678;9.158;2022-11-20T21:59:32;0.87;;;0.70;;
13432;SDS011;6789;47.678;9.158;2022-11-20T22:04:40;1.10;;;0.97;;
13432;SDS011;6789;47.678;9.158;2022-11-20T22:09:46;1.10;;;0.90;;
13432;SDS011;6789;47.678;9.158;2022-11-20T22:14:52;1.67;;;1.00;;
13432;SDS011;6789;47.678;9.158;2022-11-20T22:19:58;0.80;;;0.80;;
13432;SDS011;6789;47.678;9.158;2022-11-20T22:25:04;0.87;;;0.80;;
13432;SDS011;6789;47.678;9.158;2022-11-20T22:30:10;0.50;;;0.50;;
13432;SDS011;6789;47.678;9.158;2022-11-20T22:35:17;0.97;;;0.80;;
13432;SDS011;6789;47.678;9.158;2022-11-20T22:40:23;0.80;;;0.80;;
13432;SDS011;6789;47.678;9.158;2022-11-20T22:45:29;1.20;;;0.80;;
13432;SDS011;6789;47.678;9.158;2022-11-20T22:50:37;1.20;;;0.60;;
13432;SDS011;6789;47.678;9.158;2022-11-20T22:55:43;1.73;;;0.80;;
13432;SDS011;6789;47.678;9.158;2022-11-20T23:00:53;0.73;;;0.70;;
13432;SDS011;6789;47.678;9.158;2022-11-20T23:06:00;0.70;;;0.70;;
13432;SDS011;6789;47.678;9.158;2022-11-20T23:11:11;1.43;;;1.00;;
13432;SDS011;6789;47.678;9.158;2022-11-20T23:16:26;0.70;;;0.70;;
13432;SDS011;6789;47.678;9.158;2022-11-20T23:21:37;1.40;;;0.90;;
13432;SDS011;6789;47.678;9.158;2022-11-20T23:26:46;0.70;;;0.70;;
13432;SDS011;6789;47.678;9.158;2022-11-20T23:31:52;1.00;;;0.80;;
13432;SDS011;6789;47.678;9.158;2022-11-20T23:36:58;1.10;;;1.00;;
13432;SDS011;6789;47.678;9.158;2022-11-20T23:42:05;1.60;;;1.00;;
13432;SDS011;6789;47.678;9.158;2022-11-20T23:47:10;0.90;;;0.90;;
13432;SDS011;6789;47.678;9.158;2022-11-20T23:52:03;1.17;;;1.07;;
13432;SDS011;6789;47.678;9.158;2022-11-20T23:57:09;2.03;;;1.30;;
